• Join FlightAware (Why Join?)
  • Login
  • US Flag 
09:40AM EDT


 

Airport Tracker/Info


-or-


 

Live Flight TrackerFlight Track Log ✈ GGN7281 ✈ 02-Aug-2013 ✈ KALB - CYYZ

Flight Track Log - Related Links

Times and Time Zones

All times are in EDT time to prevent confusion due to time zone crossing. See the GGN7281 flight status page for this flight to view local times or setup timezone preferences in your user account.

Time Position Orientation Groundspeed Altitude Reporting Facility
EDT Latitude Longitude Course Direction KTS MPH feet Rate Location/Type
11:23AM 42.7589 -73.8058 326° Northwest 134 154 900  Level Boston Center
11:24AM 42.7942 -73.8378 326° Northwest 149 171 2,700 1,860 Climbing Boston Center
11:25AM 42.8017 -73.8889 281° West 141 162 4,800 1,680 Climbing Boston Center
11:25AM 42.8075 -73.9172 286° West 148 170 5,300 1,620 Climbing Boston Center
11:26AM 42.8153 -73.9686 282° West 164 189 7,300 1,800 Climbing Boston Center
11:27AM 42.8228 -74.0253 280° West 158 182 9,000 1,620 Climbing Boston Center
11:28AM 42.8281 -74.0961 276° West 168 193 10,500 1,440 Climbing Boston Center
11:29AM 42.8292 -74.1642 271° West 183 211 11,900 1,260 Climbing Boston Center
11:30AM 42.8322 -74.2408 273° West 198 228 13,100 1,020 Climbing Boston Center
11:31AM 42.8372 -74.3172 275° West 198 228 14,000 1,080 Climbing Boston Center
11:32AM 42.8400 -74.3939 273° West 204 235 15,300 900 Climbing Boston Center
11:33AM 42.8408 -74.4619 271° West 209 241 15,800 300 Climbing Boston Center
11:34AM 42.8453 -74.5669 273° West 228 262 16,000 60 Climbing Boston Center
11:35AM 42.8500 -74.6547 274° West 236 272 16,000  Level Boston Center
11:36AM 42.8522 -74.7456 272° West 236 272 16,000  Level Boston Center
11:37AM 42.8547 -74.8306 272° West 236 272 16,000  Level Boston Center
11:38AM 42.8589 -74.9186 274° West 236 272 16,000  Level Boston Center
11:39AM 42.8611 -75.0092 272° West 236 272 16,000  Level Boston Center
11:40AM 42.8656 -75.0972 274° West 236 272 16,000  Level Boston Center
11:41AM 42.8694 -75.1881 273° West 236 272 16,000  Level Boston Center
11:42AM 42.8714 -75.2761 272° West 236 272 16,000  Level Boston Center
11:43AM 42.8733 -75.3642 272° West 236 272 16,000  Level Boston Center
11:44AM 42.8753 -75.4519 272° West 236 272 16,000  Level Boston Center
11:46AM 42.8825 -75.5994 274° West 234 269 16,000  Level New York Center
11:47AM 42.8831 -75.6872 271° West 234 269 16,000  Level New York Center
11:48AM 42.8875 -75.7781 274° West 234 269 16,000  Level New York Center
11:49AM 42.8900 -75.8658 272° West 234 269 16,000  Level New York Center
11:50AM 42.8925 -75.9539 272° West 234 269 16,000  Level New York Center
11:51AM 42.8950 -76.0417 272° West 234 269 16,000  Level New York Center
11:52AM 42.8950 -76.1322 270° West 234 269 16,000  Level New York Center
11:53AM 42.8972 -76.2200 272° West 234 269 16,000  Level New York Center
11:54AM 42.8994 -76.2889 273° West 236 272 16,000  Level Cleveland Center
11:55AM 42.8986 -76.3769 269° West 241 277 16,000  Level Cleveland Center
11:56AM 42.9039 -76.4672 275° West 241 277 16,000  Level Cleveland Center
11:57AM 42.9047 -76.5550 271° West 236 272 16,000  Level Cleveland Center
11:58AM 42.9017 -76.6461 267° West 236 272 16,100  Climbing Cleveland Center
11:59AM 42.9025 -76.7339 271° West 236 272 16,100 -60 Level Cleveland Center
12:00PM 42.9056 -76.8244 273° West 236 272 16,000 -60 Descending Cleveland Center
12:01PM 42.9106 -76.9119 274° West 231 266 16,000  Level Cleveland Center
12:02PM 42.9131 -76.9969 272° West 231 266 16,000  Level Cleveland Center
12:03PM 42.9053 -77.0794 263° West 226 260 16,000  Level Cleveland Center
12:04PM 42.8825 -77.1575 248° West 226 260 16,100  Climbing Cleveland Center
12:05PM 42.8619 -77.2350 250° West 226 260 16,000 -120 Descending Cleveland Center
12:06PM 42.8411 -77.3125 250° West 226 260 15,900  Descending Cleveland Center
12:07PM 42.8100 -77.3850 240° Southwest 226 260 16,000  Climbing Cleveland Center
12:08PM 42.7786 -77.4631 241° Southwest 231 266 16,000  Level Cleveland Center
12:09PM 42.7475 -77.5408 241° Southwest 236 272 16,000  Level Cleveland Center
12:10PM 42.7139 -77.6161 239° Southwest 236 272 16,000  Level Cleveland Center
12:11PM 42.6825 -77.6908 240° Southwest 236 272 16,100  Climbing Cleveland Center
12:12PM 42.6508 -77.7658 240° Southwest 236 272 16,000 -60 Descending Cleveland Center
12:13PM 42.6131 -77.8381 235° Southwest 231 266 16,000  Level Cleveland Center
12:14PM 42.5689 -77.9133 231° Southwest 242 278 16,000  Level Cleveland Center
12:15PM 42.5353 -77.9881 239° Southwest 242 278 16,100  Climbing Cleveland Center
12:16PM 42.5536 -78.0689 287° West 212 244 16,000 -60 Descending Cleveland Center
12:17PM 42.5761 -78.1358 295° West 212 244 16,000  Level Cleveland Center
12:18PM 42.6025 -78.2108 296° West 223 257 16,000  Level Cleveland Center
12:19PM 42.6375 -78.2831 303° West 228 262 16,000  Level Cleveland Center
12:20PM 42.6783 -78.3464 311° West 234 269 16,100  Climbing Cleveland Center
12:21PM 42.7169 -78.4128 308° West 234 269 16,000 -60 Descending Cleveland Center
12:22PM 42.7600 -78.4822 310° West 234 269 16,000  Level Cleveland Center
12:23PM 42.8028 -78.5458 313° West 234 269 16,000 -60 Level Cleveland Center
12:24PM 42.8436 -78.6067 312° West 229 264 15,900 -360 Descending Cleveland Center
12:25PM 42.8864 -78.6792 309° West 229 264 15,300 -600 Descending Cleveland Center
12:26PM 42.9314 -78.7514 310° West 235 270 14,700 -660 Descending Cleveland Center
12:27PM 42.9739 -78.8097 315° West 235 270 14,000 -840 Descending Cleveland Center
12:29PM 43.0667 -78.9333 316° Northwest 210 242 12,000 -840 Descending Toronto Center
12:30PM 43.1000 -79.0000 304° West 220 253 11,300 -600 Descending Toronto Center
12:31PM 43.1500 -79.0667 316° Northwest 210 242 10,900 -660 Descending Toronto Center
12:32PM 43.1833 -79.1333 304° West 210 242 10,000 -900 Descending Toronto Center
12:33PM 43.2167 -79.1833 312° West 210 242 9,200 -960 Descending Toronto Center
12:34PM 43.2500 -79.2500 304° West 210 242 8,100 -960 Descending Toronto Center
12:35PM 43.2833 -79.3167 304° West 230 265 7,300 -900 Descending Toronto Center
12:36PM 43.3500 -79.3167 360° North 240 276 6,300 -720 Descending Toronto Center
12:37PM 43.4167 -79.2833 20° North 240 276 5,900 -780 Descending Toronto Center
12:38PM 43.4667 -79.3500 316° Northwest 220 253 4,800 -1,140 Descending Toronto Center
12:39PM 43.5000 -79.4000 313° West 210 242 3,700 -960 Descending Toronto Center
12:40PM 43.5333 -79.4500 313° West 200 230 2,900 -540 Descending Toronto Center
12:41PM 43.5833 -79.5000 324° Northwest 180 207 2,700 -600 Descending Toronto Center
12:42PM 43.6167 -79.5333 324° Northwest 160 184 1,800 -840 Descending Toronto Center
12:43PM 43.6333 -79.5833 295° West 140 161 1,100 -660 Descending Toronto Center
12:44PM 43.6667 -79.6167 324° Northwest 120 138 500 -600 Descending Toronto Center